Time;durP1;ratioP1;P1;durP2;ratioP2;P2;SDS_P1;SDS_P2;PMS_P1;PMS_P2;Temp;Humidity;BMP_temperature;BMP_pressure;BME280_temperature;BME280_humidity;BME280_pressure;Samples;Min_cycle;Max_cycle;Signal;HPM_P1;HPM_P2
2023/10/11 00:04:26;;;;;;;28.77;18.80;;;12.70;99.90;;;;;;12729384;23;20246;-83
2023/10/11 00:09:38;;;;;;;21.93;17.73;;;12.70;99.90;;;;;;12730431;23;20168;-83
2023/10/11 00:14:40;;;;;;;25.87;18.93;;;12.70;99.90;;;;;;12727341;23;20223;-83
2023/10/11 00:19:45;;;;;;;19.87;16.00;;;12.80;99.90;;;;;;12729920;23;20226;-83
2023/10/11 00:24:48;;;;;;;20.23;15.67;;;12.70;99.90;;;;;;12730199;23;20196;-83
2023/10/11 00:29:52;;;;;;;19.37;15.00;;;12.70;99.90;;;;;;12733724;23;20176;-83
2023/10/11 00:34:55;;;;;;;22.80;16.27;;;12.70;99.90;;;;;;12706964;23;20288;-83
2023/10/11 00:39:57;;;;;;;18.93;14.97;;;12.60;99.90;;;;;;12707169;23;20208;-84
2023/10/11 00:45:02;;;;;;;20.90;16.07;;;12.70;99.90;;;;;;12681953;23;20663;-83
2023/10/11 00:50:05;;;;;;;22.20;15.60;;;12.50;99.90;;;;;;12733287;23;20172;-83
2023/10/11 00:55:14;;;;;;;21.83;15.90;;;12.60;99.90;;;;;;12706313;23;20176;-83
2023/10/11 01:00:23;;;;;;;23.07;15.13;;;12.60;99.90;;;;;;12705647;23;20753;-84
2023/10/11 01:05:25;;;;;;;19.60;14.73;;;12.70;99.90;;;;;;12705730;23;20199;-84
2023/10/11 01:10:29;;;;;;;17.00;14.60;;;12.60;99.90;;;;;;12706370;23;20180;-83
2023/10/11 01:15:33;;;;;;;20.50;14.40;;;12.70;99.90;;;;;;12706514;23;20636;-83
2023/10/11 01:20:36;;;;;;;23.63;15.47;;;12.80;99.90;;;;;;12732500;23;20180;-83
2023/10/11 01:25:40;;;;;;;21.30;14.80;;;12.80;99.90;;;;;;12731836;23;20550;-83
2023/10/11 01:30:42;;;;;;;18.57;15.53;;;12.70;99.90;;;;;;12681775;23;20183;-83
2023/10/11 01:35:48;;;;;;;23.90;16.97;;;12.60;99.90;;;;;;12707017;23;20254;-83
2023/10/11 01:40:54;;;;;;;22.67;16.50;;;12.60;99.90;;;;;;12706767;23;20206;-83
2023/10/11 01:45:56;;;;;;;17.97;15.23;;;12.50;99.90;;;;;;12706416;23;20175;-83
2023/10/11 01:51:08;;;;;;;22.00;15.13;;;12.50;99.90;;;;;;12731117;23;20579;-83
2023/10/11 01:56:13;;;;;;;18.47;15.60;;;12.50;99.90;;;;;;12705781;23;20636;-83
2023/10/11 02:01:22;;;;;;;19.37;13.73;;;12.40;99.90;;;;;;12681770;23;20192;-84
2023/10/11 02:06:26;;;;;;;17.57;15.67;;;12.40;99.90;;;;;;12681934;23;20567;-83
2023/10/11 02:11:32;;;;;;;17.80;13.87;;;12.30;99.90;;;;;;12731237;23;20485;-83
2023/10/11 02:16:36;;;;;;;18.30;13.83;;;12.30;99.90;;;;;;12704160;23;20231;-84
2023/10/11 02:21:43;;;;;;;21.77;16.77;;;12.20;99.90;;;;;;12722165;23;20189;-83
2023/10/11 02:26:49;;;;;;;18.33;14.03;;;12.20;99.90;;;;;;12724157;23;20216;-83
2023/10/11 02:31:54;;;;;;;18.57;15.07;;;12.30;99.90;;;;;;12680824;23;20179;-83
2023/10/11 02:37:04;;;;;;;13.60;11.70;;;12.30;99.90;;;;;;12747968;23;20239;-83
2023/10/11 02:42:06;;;;;;;15.90;12.83;;;12.40;99.90;;;;;;12704393;23;20194;-84
2023/10/11 02:47:09;;;;;;;19.00;14.67;;;12.40;99.90;;;;;;12731137;23;20231;-83
2023/10/11 02:52:13;;;;;;;18.77;14.83;;;12.40;99.90;;;;;;12705585;23;20172;-83
2023/10/11 02:57:19;;;;;;;19.63;14.33;;;12.50;99.90;;;;;;12704360;23;20183;-83
2023/10/11 03:02:29;;;;;;;13.10;11.07;;;12.50;99.90;;;;;;12704000;23;20202;-83
2023/10/11 03:07:33;;;;;;;12.73;10.70;;;12.50;99.90;;;;;;12703897;23;20227;-83
2023/10/11 03:12:39;;;;;;;13.67;10.17;;;12.60;99.90;;;;;;12704090;23;20227;-84
2023/10/11 03:17:42;;;;;;;18.37;14.50;;;12.60;99.90;;;;;;12704364;23;20180;-84
2023/10/11 03:22:51;;;;;;;18.80;14.00;;;12.60;99.90;;;;;;12704420;23;20583;-83
2023/10/11 03:27:53;;;;;;;11.87;9.77;;;12.60;99.90;;;;;;12730552;23;20612;-84
2023/10/11 03:32:56;;;;;;;14.53;12.63;;;12.50;99.90;;;;;;12679869;23;20176;-84
2023/10/11 03:37:59;;;;;;;22.80;13.53;;;12.60;99.90;;;;;;12703369;23;20205;-84
2023/10/11 03:43:16;;;;;;;17.97;12.97;;;12.60;99.90;;;;;;12730108;23;20195;-84
2023/10/11 03:48:20;;;;;;;14.53;11.60;;;12.60;99.90;;;;;;12743735;23;20524;-83
2023/10/11 03:53:24;;;;;;;13.53;10.53;;;12.50;99.90;;;;;;12703412;23;20563;-84
2023/10/11 03:58:33;;;;;;;14.23;9.73;;;12.50;99.90;;;;;;12702769;23;20699;-83
2023/10/11 04:03:39;;;;;;;17.73;10.97;;;12.50;99.90;;;;;;12702606;23;20250;-84
2023/10/11 04:08:48;;;;;;;13.00;10.97;;;12.50;99.90;;;;;;12729329;23;20246;-83
2023/10/11 04:13:51;;;;;;;11.87;8.70;;;12.40;99.90;;;;;;12747680;23;20172;-84
2023/10/11 04:18:53;;;;;;;14.13;10.97;;;12.40;99.90;;;;;;12703204;23;20217;-83
2023/10/11 04:23:56;;;;;;;14.57;10.77;;;12.40;99.90;;;;;;12730591;23;20254;-83
2023/10/11 04:29:18;;;;;;;17.30;10.30;;;12.30;99.90;;;;;;12729098;23;20164;-83
2023/10/11 04:34:31;;;;;;;15.63;10.53;;;12.30;99.90;;;;;;12728634;23;20302;-84
2023/10/11 04:39:34;;;;;;;17.27;12.83;;;12.40;99.90;;;;;;12737633;23;20672;-84
2023/10/11 04:44:47;;;;;;;18.03;12.17;;;12.30;99.90;;;;;;12701071;23;20199;-84
2023/10/11 04:49:52;;;;;;;19.17;12.53;;;12.20;99.90;;;;;;12736632;23;20615;-84
2023/10/11 04:54:54;;;;;;;28.10;18.93;;;12.20;99.90;;;;;;12728745;23;20197;-84
2023/10/11 05:00:00;;;;;;;32.80;21.97;;;12.10;99.90;;;;;;12730501;23;20176;-83
2023/10/11 05:05:10;;;;;;;20.53;15.00;;;12.30;99.90;;;;;;12728498;23;20737;-82
2023/10/11 05:10:29;;;;;;;23.03;14.40;;;12.30;99.90;;;;;;12729069;23;20211;-82
2023/10/11 05:15:42;;;;;;;20.43;15.70;;;12.20;99.90;;;;;;12724299;23;20168;-82
2023/10/11 05:20:57;;;;;;;21.93;16.07;;;12.20;99.90;;;;;;12736908;23;20226;-82
2023/10/11 05:26:16;;;;;;;18.03;13.67;;;12.20;99.90;;;;;;12749278;23;20191;-82
2023/10/11 05:31:22;;;;;;;20.10;14.03;;;12.10;99.90;;;;;;12749717;23;20584;-81
2023/10/11 05:36:48;;;;;;;22.70;14.53;;;12.20;99.90;;;;;;12708083;23;20559;-82
2023/10/11 05:52:33;;;;;;;19.70;13.30;;;12.20;99.90;;;;;;12731849;23;20172;-83
2023/10/11 05:57:36;;;;;;;21.73;12.33;;;12.30;99.90;;;;;;12732160;23;20507;-82
2023/10/11 06:02:40;;;;;;;18.80;14.50;;;12.40;99.90;;;;;;12722256;23;20192;-82
2023/10/11 06:07:43;;;;;;;22.27;14.10;;;12.50;99.90;;;;;;12732018;23;20269;-81
2023/10/11 06:12:45;;;;;;;18.73;14.40;;;12.60;99.90;;;;;;12731790;23;20173;-82
2023/10/11 06:17:49;;;;;;;20.93;13.17;;;12.80;99.90;;;;;;12731594;23;20246;-82
2023/10/11 06:22:51;;;;;;;18.67;13.57;;;12.90;99.90;;;;;;12704460;23;20593;-81
2023/10/11 06:33:00;;;;;;;20.57;13.60;;;13.10;99.90;;;;;;12704757;23;20180;-82
2023/10/11 06:38:04;;;;;;;19.97;13.67;;;13.30;99.90;;;;;;12730190;23;20208;-82
2023/10/11 06:43:08;;;;;;;21.47;12.50;;;13.40;99.90;;;;;;12705409;23;20189;-81
2023/10/11 06:48:13;;;;;;;18.10;13.20;;;13.60;99.90;;;;;;12703585;23;20218;-81
2023/10/11 06:53:17;;;;;;;21.10;12.30;;;13.90;99.90;;;;;;12704465;23;20176;-81
2023/10/11 06:58:20;;;;;;;19.37;12.37;;;14.10;99.90;;;;;;12729807;23;20173;-81
2023/10/11 07:08:35;;;;;;;20.33;12.13;;;14.50;99.90;;;;;;12748873;23;20222;-81
2023/10/11 07:19:15;;;;;;;17.40;10.83;;;14.90;99.90;;;;;;12696423;23;20231;-82
2023/10/11 07:24:19;;;;;;;14.93;11.27;;;15.20;99.90;;;;;;12703603;23;20200;-82
2023/10/11 07:29:23;;;;;;;13.70;9.90;;;15.50;99.90;;;;;;12730054;23;20176;-82
2023/10/11 07:40:09;;;;;;;12.83;9.50;;;15.90;99.90;;;;;;12765606;23;20777;-87
2023/10/11 07:45:15;;;;;;;18.03;11.00;;;16.10;99.90;;;;;;12763644;23;20195;-87
2023/10/11 07:50:22;;;;;;;16.23;10.67;;;16.20;99.90;;;;;;12764168;23;20168;-87
2023/10/11 07:55:26;;;;;;;14.50;10.03;;;16.20;99.90;;;;;;12705075;23;20278;-83
2023/10/11 08:00:30;;;;;;;16.67;11.77;;;16.40;99.90;;;;;;12702683;23;20231;-83
2023/10/11 08:05:44;;;;;;;14.47;10.27;;;16.40;99.90;;;;;;12729267;23;20191;-83
2023/10/11 08:10:52;;;;;;;14.37;10.30;;;16.40;99.90;;;;;;12704694;23;20199;-83
2023/10/11 08:15:58;;;;;;;18.97;11.20;;;16.50;99.90;;;;;;12700881;23;20177;-83
2023/10/11 08:21:02;;;;;;;14.50;9.33;;;16.70;99.90;;;;;;12726488;23;20176;-82
2023/10/11 08:26:07;;;;;;;12.27;8.97;;;16.90;99.90;;;;;;12727203;23;20180;-83
2023/10/11 08:31:10;;;;;;;10.97;8.63;;;17.00;99.90;;;;;;12701168;23;20200;-83
2023/10/11 08:36:14;;;;;;;11.53;8.87;;;17.30;99.30;;;;;;12701097;23;20631;-82
2023/10/11 08:41:18;;;;;;;11.33;9.17;;;;;;;;;;12727864;23;20180;-82
2023/10/11 08:46:23;;;;;;;10.90;8.73;;;17.60;97.60;;;;;;12702146;23;20254;-82
2023/10/11 08:51:34;;;;;;;13.80;9.97;;;17.70;97.20;;;;;;12731744;23;20204;-82
2023/10/11 08:56:39;;;;;;;15.03;8.67;;;17.90;97.70;;;;;;12704157;23;20234;-83
2023/10/11 09:01:45;;;;;;;12.60;8.07;;;18.10;95.90;;;;;;12749237;23;20173;-83
2023/10/11 09:06:47;;;;;;;14.57;7.83;;;18.20;94.40;;;;;;12730286;23;20205;-82
2023/10/11 09:11:57;;;;;;;11.93;8.77;;;18.30;95.00;;;;;;12749832;23;20173;-83
2023/10/11 09:17:19;;;;;;;7.87;6.27;;;18.30;94.10;;;;;;12706012;23;20657;-82
2023/10/11 09:22:21;;;;;;;13.90;7.57;;;18.40;92.70;;;;;;12749101;23;20608;-82
2023/10/11 09:27:24;;;;;;;8.13;6.47;;;18.40;93.40;;;;;;12731783;23;20184;-80
2023/10/11 09:32:33;;;;;;;12.90;8.47;;;18.50;92.30;;;;;;12705418;23;20222;-80
2023/10/11 09:37:36;;;;;;;11.47;7.63;;;18.50;92.60;;;;;;12731583;23;20184;-80
2023/10/11 09:42:43;;;;;;;9.97;7.90;;;18.60;92.30;;;;;;12703303;23;20230;-81
2023/10/11 09:47:54;;;;;;;10.73;7.90;;;18.70;91.90;;;;;;12748054;23;20165;-81
2023/10/11 09:53:00;;;;;;;10.57;7.37;;;18.90;91.30;;;;;;12704750;23;20262;-81
2023/10/11 09:58:22;;;;;;;12.27;8.20;;;18.90;91.20;;;;;;12704669;23;20183;-82
2023/10/11 10:03:24;;;;;;;11.30;6.70;;;18.90;90.60;;;;;;12730688;23;20255;-81
2023/10/11 10:08:28;;;;;;;10.03;7.27;;;19.00;89.60;;;;;;12705721;23;20558;-81
2023/10/11 10:14:22;;;;;;;11.33;6.00;;;19.10;90.60;;;;;;12705441;23;20185;-81
2023/10/11 10:19:26;;;;;;;10.40;6.63;;;19.20;88.60;;;;;;12749983;23;20223;-81
2023/10/11 10:24:29;;;;;;;10.23;6.83;;;19.20;88.40;;;;;;12677362;23;20892;-82
2023/10/11 10:29:59;;;;;;;9.07;7.07;;;19.20;89.40;;;;;;12730816;23;20165;-81
2023/10/11 10:35:18;;;;;;;9.13;5.80;;;19.20;87.60;;;;;;12704292;23;20564;-81
2023/10/11 10:40:25;;;;;;;9.13;6.23;;;19.20;88.00;;;;;;12731654;23;20231;-81
2023/10/11 10:45:29;;;;;;;12.07;6.97;;;19.20;87.40;;;;;;12748986;23;20238;-81
2023/10/11 10:50:47;;;;;;;8.40;6.83;;;19.30;87.60;;;;;;12705567;23;20169;-81
2023/10/11 10:55:50;;;;;;;7.80;6.07;;;19.30;86.60;;;;;;12704955;23;20196;-81
2023/10/11 11:00:53;;;;;;;10.87;6.80;;;19.30;86.30;;;;;;12731409;23;20512;-81
2023/10/11 11:06:01;;;;;;;10.03;7.03;;;19.30;89.40;;;;;;12730874;23;20300;-82
2023/10/11 11:16:27;;;;;;;8.98;5.82;;;19.30;88.20;;;;;;12748870;23;20558;-82
2023/10/11 11:21:30;;;;;;;8.97;7.10;;;19.30;85.30;;;;;;12703561;23;20176;-81
2023/10/11 11:26:33;;;;;;;11.20;7.17;;;19.50;85.00;;;;;;12704500;23;20188;-81
2023/10/11 11:31:52;;;;;;;8.57;5.83;;;19.60;87.30;;;;;;12730505;23;20234;-81
2023/10/11 11:36:58;;;;;;;9.97;6.03;;;19.70;83.10;;;;;;12747411;23;20567;-81
2023/10/11 11:42:20;;;;;;;8.80;5.93;;;19.70;82.30;;;;;;12730153;23;20239;-81
2023/10/11 11:47:23;;;;;;;8.33;5.77;;;19.80;84.80;;;;;;12680086;23;20729;-81
2023/10/11 11:52:28;;;;;;;5.93;5.33;;;20.00;81.40;;;;;;12730495;23;20562;-81
2023/10/11 11:57:31;;;;;;;10.40;6.00;;;20.00;79.90;;;;;;12730772;23;20444;-81
2023/10/11 12:02:35;;;;;;;14.87;8.83;;;20.00;80.70;;;;;;12728777;23;20615;-81
2023/10/11 12:07:43;;;;;;;11.57;6.87;;;20.00;80.90;;;;;;12728817;23;20271;-82
2023/10/11 12:12:45;;;;;;;8.03;6.13;;;19.90;80.00;;;;;;12729851;23;20693;-81
2023/10/11 12:17:54;;;;;;;10.97;6.13;;;19.90;79.60;;;;;;12729576;23;20558;-81
2023/10/11 12:23:07;;;;;;;10.47;6.37;;;19.90;80.60;;;;;;12678230;23;20243;-81
2023/10/11 12:28:11;;;;;;;9.43;6.17;;;19.90;79.80;;;;;;12704622;23;20203;-81
2023/10/11 12:33:13;;;;;;;7.63;5.70;;;19.90;80.40;;;;;;12729236;23;20172;-81
2023/10/11 12:38:16;;;;;;;9.80;5.97;;;19.80;80.50;;;;;;12727612;23;20180;-82
2023/10/11 12:43:22;;;;;;;9.10;6.10;;;19.90;80.60;;;;;;12702037;23;20227;-81
2023/10/11 12:48:25;;;;;;;8.63;5.87;;;19.90;81.30;;;;;;12718694;23;20165;-82
2023/10/11 12:53:29;;;;;;;14.53;7.23;;;19.90;80.70;;;;;;12726275;23;20235;-81
2023/10/11 12:58:39;;;;;;;8.03;5.80;;;19.90;83.80;;;;;;12703111;23;20192;-81
2023/10/11 13:03:42;;;;;;;10.47;6.77;;;19.90;79.70;;;;;;12744482;23;20504;-81
2023/10/11 13:08:45;;;;;;;11.17;5.50;;;19.90;80.90;;;;;;12727413;23;20181;-81
2023/10/11 13:13:48;;;;;;;7.05;4.72;;;19.90;81.30;;;;;;12728873;23;20172;-83
2023/10/11 13:18:51;;;;;;;10.47;4.90;;;19.90;80.60;;;;;;12701164;23;20180;-81
2023/10/11 13:23:53;;;;;;;9.20;6.53;;;20.00;80.50;;;;;;12728566;23;20192;-81
2023/10/11 13:29:01;;;;;;;9.93;5.97;;;20.00;80.00;;;;;;12727870;23;20169;-82
2023/10/11 13:34:05;;;;;;;9.03;5.53;;;20.10;80.50;;;;;;12729236;23;20180;-81
2023/10/11 13:39:25;;;;;;;11.10;4.85;;;20.20;84.00;;;;;;12705777;23;20432;-81
2023/10/11 13:44:28;;;;;;;11.43;5.50;;;20.30;82.90;;;;;;12748299;23;20262;-81
2023/10/11 13:49:33;;;;;;;12.77;6.03;;;20.40;81.30;;;;;;12731756;23;20216;-82
2023/10/11 13:59:48;;;;;;;13.80;6.70;;;20.50;85.60;;;;;;12731372;23;20203;-83
2023/10/11 14:05:09;;;;;;;8.93;5.57;;;20.60;85.90;;;;;;12729603;23;20196;-82
2023/10/11 14:10:16;;;;;;;11.85;6.55;;;20.60;85.20;;;;;;12738740;23;20195;-82
2023/10/11 14:15:19;;;;;;;10.60;5.60;;;20.50;93.20;;;;;;12707574;23;20172;-82
2023/10/11 14:20:23;;;;;;;13.27;5.43;;;20.50;93.00;;;;;;12729304;23;20180;-82
2023/10/11 14:25:25;;;;;;;7.35;4.68;;;20.60;93.30;;;;;;12703728;23;20208;-82
2023/10/11 14:30:29;;;;;;;8.32;5.32;;;20.60;94.20;;;;;;12703843;23;20503;-82
2023/10/11 14:35:33;;;;;;;8.93;5.18;;;20.60;94.90;;;;;;12728315;23;20227;-82
2023/10/11 14:40:36;;;;;;;14.43;5.85;;;20.30;95.70;;;;;;12729221;23;20176;-81
2023/10/11 14:45:39;;;;;;;12.20;5.13;;;20.50;95.40;;;;;;12679231;23;20251;-82
2023/10/11 14:50:42;;;;;;;8.57;5.30;;;20.20;95.40;;;;;;12728383;23;20192;-82
2023/10/11 14:55:45;;;;;;;6.97;4.65;;;20.10;95.50;;;;;;12701613;23;20208;-82
2023/10/11 15:00:47;;;;;;;7.75;4.18;;;20.10;95.70;;;;;;12728961;23;20173;-82
2023/10/11 15:05:50;;;;;;;11.70;5.23;;;20.00;96.60;;;;;;12728892;23;20274;-81
2023/10/11 15:10:53;;;;;;;8.40;5.20;;;19.80;96.20;;;;;;12728252;23;20559;-81
2023/10/11 15:15:55;;;;;;;10.27;5.10;;;20.00;96.20;;;;;;12728023;23;20211;-81
2023/10/11 15:20:59;;;;;;;11.48;5.93;;;19.80;96.50;;;;;;12701759;23;20180;-81
2023/10/11 15:26:02;;;;;;;13.20;5.25;;;19.60;97.10;;;;;;12728477;23;20184;-82
2023/10/11 15:31:06;;;;;;;7.47;4.68;;;19.60;97.10;;;;;;12727903;23;20227;-82
2023/10/11 15:36:09;;;;;;;8.73;5.28;;;19.40;97.20;;;;;;12727932;23;20562;-82
2023/10/11 15:41:16;;;;;;;10.68;7.05;;;19.40;97.50;;;;;;12702280;23;20234;-82
2023/10/11 15:46:21;;;;;;;13.13;6.88;;;19.30;97.80;;;;;;12720429;23;20667;-81
2023/10/11 15:51:26;;;;;;;14.77;5.43;;;19.20;98.10;;;;;;12745748;23;20192;-83
2023/10/11 15:56:31;;;;;;;10.25;4.90;;;19.10;98.20;;;;;;12729629;23;20227;-82
2023/10/11 16:01:34;;;;;;;11.45;5.20;;;19.20;98.50;;;;;;12728233;23;20448;-83
2023/10/11 16:06:37;;;;;;;10.63;5.75;;;19.00;99.00;;;;;;12746436;23;20193;-82
2023/10/11 16:11:40;;;;;;;11.10;6.23;;;18.80;99.70;;;;;;12729594;23;20235;-82
2023/10/11 16:16:43;;;;;;;11.50;7.07;;;18.70;99.90;;;;;;12744801;23;20503;-82
2023/10/11 16:21:46;;;;;;;7.80;5.30;;;18.70;99.90;;;;;;12701310;23;20176;-82
2023/10/11 16:26:53;;;;;;;15.13;6.30;;;18.60;99.90;;;;;;12700611;23;20192;-82
2023/10/11 16:31:56;;;;;;;8.20;6.22;;;18.50;99.90;;;;;;12718843;23;20511;-82
2023/10/11 16:36:59;;;;;;;20.80;7.57;;;18.60;99.90;;;;;;12727314;23;20511;-82
2023/10/11 16:42:05;;;;;;;10.45;5.55;;;18.50;99.90;;;;;;12726540;23;20764;-82
2023/10/11 16:47:08;;;;;;;7.05;5.20;;;18.50;99.90;;;;;;12745285;23;20246;-82
2023/10/11 16:52:11;;;;;;;12.82;6.40;;;18.60;99.90;;;;;;12728280;23;20192;-85
2023/10/11 16:57:19;;;;;;;11.70;6.53;;;18.40;99.90;;;;;;12746706;23;20196;-84
2023/10/11 17:02:25;;;;;;;9.03;6.30;;;18.30;99.90;;;;;;12746299;23;20553;-84
2023/10/11 17:07:30;;;;;;;11.13;6.13;;;18.50;99.90;;;;;;12730323;23;20539;-84
2023/10/11 17:12:35;;;;;;;18.60;7.60;;;18.20;99.90;;;;;;12749983;23;20168;-84
2023/10/11 17:17:38;;;;;;;8.00;4.97;;;18.30;99.90;;;;;;12732876;23;20177;-84
2023/10/11 17:22:49;;;;;;;11.02;7.45;;;18.40;99.90;;;;;;12732207;23;20208;-84
2023/10/11 17:27:55;;;;;;;8.02;5.13;;;18.40;99.90;;;;;;12732795;23;20188;-84
2023/10/11 17:33:01;;;;;;;12.20;7.28;;;18.60;99.90;;;;;;12749567;23;20165;-84
2023/10/11 17:38:06;;;;;;;8.15;5.00;;;18.60;99.90;;;;;;12706359;23;20185;-84
2023/10/11 17:43:09;;;;;;;10.70;4.75;;;18.50;99.90;;;;;;12732983;23;20169;-85
2023/10/11 17:48:13;;;;;;;6.50;4.65;;;18.60;99.90;;;;;;12706387;23;20197;-85
2023/10/11 17:53:16;;;;;;;6.13;4.47;;;18.60;99.90;;;;;;12730437;23;20258;-84
2023/10/11 17:58:19;;;;;;;14.25;7.75;;;18.50;99.90;;;;;;12732012;23;20172;-84
2023/10/11 18:03:22;;;;;;;8.80;4.90;;;18.60;99.90;;;;;;12731664;23;20172;-83
2023/10/11 18:08:24;;;;;;;6.57;4.20;;;18.60;99.90;;;;;;12730830;23;20200;-84
2023/10/11 18:13:27;;;;;;;11.90;7.93;;;18.60;99.90;;;;;;12704628;23;20177;-84
2023/10/11 18:18:30;;;;;;;7.22;4.63;;;18.60;99.90;;;;;;12729771;23;20185;-82
2023/10/11 18:23:32;;;;;;;14.05;6.28;;;18.70;99.90;;;;;;12701550;23;20184;-83
2023/10/11 18:28:35;;;;;;;10.70;7.28;;;18.20;99.90;;;;;;12732155;23;20197;-82
2023/10/11 18:33:40;;;;;;;14.10;7.32;;;18.30;99.90;;;;;;12729400;23;20203;-84
2023/10/11 18:38:44;;;;;;;13.68;7.90;;;18.20;99.90;;;;;;12730196;23;20521;-83
2023/10/11 18:43:48;;;;;;;9.50;6.55;;;18.00;99.90;;;;;;12678997;23;20176;-82
2023/10/11 18:48:50;;;;;;;17.35;9.68;;;17.90;99.90;;;;;;12730434;23;20246;-84
2023/10/11 18:53:53;;;;;;;13.93;8.20;;;17.70;99.90;;;;;;12703820;23;20519;-83
2023/10/11 18:58:57;;;;;;;9.48;5.63;;;17.60;99.90;;;;;;12729976;23;20227;-83
2023/10/11 19:04:01;;;;;;;11.27;7.53;;;17.50;99.90;;;;;;12730215;23;20499;-83
2023/10/11 19:09:06;;;;;;;7.63;6.47;;;17.70;99.90;;;;;;12730156;23;20592;-83
2023/10/11 19:14:09;;;;;;;15.65;8.15;;;17.70;99.90;;;;;;12730097;23;20604;-83
2023/10/11 19:19:12;;;;;;;8.17;5.27;;;17.90;99.90;;;;;;12730331;23;20215;-83
2023/10/11 19:24:15;;;;;;;8.30;5.30;;;18.10;99.90;;;;;;12730304;23;20177;-82
2023/10/11 19:29:18;;;;;;;11.27;5.18;;;18.10;99.90;;;;;;12729016;23;20574;-82
2023/10/11 19:34:21;;;;;;;8.77;5.75;;;18.30;99.90;;;;;;12702791;23;20176;-83
2023/10/11 19:39:24;;;;;;;7.05;4.47;;;18.50;99.90;;;;;;12729463;23;20207;-82
2023/10/11 19:44:28;;;;;;;11.80;4.85;;;18.50;99.90;;;;;;12729740;23;20231;-82
2023/10/11 19:49:30;;;;;;;7.45;4.93;;;18.70;99.90;;;;;;12729615;23;20590;-82
2023/10/11 19:54:33;;;;;;;7.95;4.00;;;18.60;99.90;;;;;;12728269;23;20208;-83
2023/10/11 19:59:36;;;;;;;6.88;4.93;;;18.80;99.90;;;;;;12704391;23;20188;-83
2023/10/11 20:04:38;;;;;;;6.07;3.95;;;18.90;99.90;;;;;;12702923;23;20173;-84
2023/10/11 20:09:41;;;;;;;10.90;6.45;;;19.30;99.90;;;;;;12701274;23;20656;-83
2023/10/11 20:14:46;;;;;;;12.65;5.28;;;19.00;99.90;;;;;;12702813;23;20591;-83
2023/10/11 20:19:49;;;;;;;4.30;3.60;;;19.20;99.90;;;;;;12730658;23;20168;-83
2023/10/11 20:24:51;;;;;;;6.57;4.15;;;19.30;99.90;;;;;;12729466;23;20633;-83
2023/10/11 20:29:54;;;;;;;14.65;6.80;;;19.20;99.90;;;;;;12728643;23;20583;-83
2023/10/11 20:34:57;;;;;;;12.50;4.78;;;19.40;98.90;;;;;;12703440;23;20180;-83
2023/10/11 20:40:04;;;;;;;8.98;5.10;;;19.40;99.90;;;;;;12703047;23;20556;-83
2023/10/11 20:45:11;;;;;;;6.45;4.10;;;19.30;99.70;;;;;;12732024;23;20238;-83
2023/10/11 20:50:17;;;;;;;7.18;3.97;;;19.50;99.90;;;;;;12706638;23;20177;-83
2023/10/11 20:55:24;;;;;;;7.43;3.75;;;19.50;99.40;;;;;;12732394;23;20204;-83
2023/10/11 21:00:30;;;;;;;4.63;3.75;;;19.30;99.20;;;;;;12683662;23;20180;-83
2023/10/11 21:05:36;;;;;;;4.00;3.60;;;19.20;99.40;;;;;;12732933;23;20176;-83
2023/10/11 21:10:47;;;;;;;8.27;4.68;;;19.40;99.30;;;;;;12732534;23;20570;-83
2023/10/11 21:16:04;;;;;;;6.07;3.83;;;19.40;98.80;;;;;;12683274;23;20180;-83
2023/10/11 21:21:21;;;;;;;12.05;5.82;;;19.50;99.00;;;;;;12749127;23;20226;-83
2023/10/11 21:26:23;;;;;;;8.52;5.10;;;19.60;97.60;;;;;;12710435;23;20188;-83
2023/10/11 21:31:28;;;;;;;11.38;5.40;;;19.50;98.40;;;;;;12732458;23;20500;-83
2023/10/11 21:36:30;;;;;;;10.82;4.80;;;19.40;97.70;;;;;;12731996;23;20235;-83
2023/10/11 21:41:33;;;;;;;5.78;3.72;;;19.60;97.80;;;;;;12735583;23;20180;-83
2023/10/11 21:46:38;;;;;;;5.85;4.30;;;19.30;98.70;;;;;;12731885;23;20204;-83
2023/10/11 21:51:40;;;;;;;5.20;3.90;;;19.30;98.50;;;;;;12731638;23;20239;-83
2023/10/11 21:56:43;;;;;;;7.45;4.38;;;19.40;98.30;;;;;;12730667;23;20181;-83
2023/10/11 22:01:46;;;;;;;5.70;3.38;;;19.30;98.70;;;;;;12731678;23;20172;-83
2023/10/11 22:06:48;;;;;;;6.97;4.43;;;19.30;99.40;;;;;;12732366;23;20574;-83
2023/10/11 22:11:51;;;;;;;6.82;3.83;;;19.40;99.10;;;;;;12730067;23;20535;-83
2023/10/11 22:16:53;;;;;;;8.32;4.28;;;19.30;99.90;;;;;;12705146;23;20177;-83
2023/10/11 22:21:58;;;;;;;9.23;4.63;;;19.20;99.90;;;;;;12731568;23;20243;-83
2023/10/11 22:27:05;;;;;;;5.20;3.78;;;19.20;99.90;;;;;;12730822;23;20188;-83
2023/10/11 22:32:11;;;;;;;8.35;3.70;;;19.10;99.90;;;;;;12730455;23;20284;-83
2023/10/11 22:37:14;;;;;;;7.88;4.50;;;19.30;99.90;;;;;;12705164;23;20177;-83
2023/10/11 22:42:32;;;;;;;6.60;3.85;;;19.40;99.80;;;;;;12730380;23;20207;-83
2023/10/11 22:47:35;;;;;;;7.50;4.18;;;18.90;99.90;;;;;;12749574;23;20216;-82
2023/10/11 22:52:37;;;;;;;8.88;3.75;;;18.90;99.90;;;;;;12730336;23;20192;-83
2023/10/11 22:57:43;;;;;;;6.47;3.80;;;19.00;99.80;;;;;;12731232;23;20184;-83
2023/10/11 23:02:53;;;;;;;5.68;3.92;;;18.90;99.90;;;;;;12722317;23;20227;-83
2023/10/11 23:07:56;;;;;;;5.30;3.58;;;18.80;99.60;;;;;;12730667;23;20493;-83
2023/10/11 23:13:01;;;;;;;5.72;4.00;;;18.90;99.90;;;;;;12730104;23;20223;-82
2023/10/11 23:18:13;;;;;;;6.72;4.40;;;19.10;99.90;;;;;;12731089;23;20168;-83
2023/10/11 23:23:21;;;;;;;6.15;4.50;;;19.00;99.90;;;;;;12723459;23;20176;-83
2023/10/11 23:28:28;;;;;;;9.73;5.40;;;18.80;99.90;;;;;;12703825;23;20543;-83
2023/10/11 23:33:34;;;;;;;5.60;3.03;;;19.00;99.60;;;;;;12729430;23;20566;-83
2023/10/11 23:38:44;;;;;;;4.88;3.78;;;19.00;99.90;;;;;;12746343;23;20176;-83
2023/10/11 23:44:16;;;;;;;13.77;4.53;;;19.00;99.70;;;;;;12729362;23;20204;-83
2023/10/11 23:49:20;;;;;;;4.63;3.47;;;19.10;99.20;;;;;;12748330;23;20247;-83
2023/10/11 23:54:24;;;;;;;6.55;4.13;;;19.00;99.00;;;;;;12729140;23;20204;-82
2023/10/11 23:59:36;;;;;;;5.57;3.80;;;19.20;98.60;;;;;;12729859;23;20195;-83
